createdAt,value
2023-02-03T00:03:49.893Z,94165.45
2023-02-03T00:08:59.852Z,94160.16
2023-02-03T00:14:08.703Z,94158.34
2023-02-03T00:19:17.553Z,94161.46
2023-02-03T00:24:24.342Z,94150.91
2023-02-03T00:29:31.539Z,94166.69
2023-02-03T00:34:38.883Z,94171.53
2023-02-03T00:39:45.990Z,94162.53
2023-02-03T00:44:52.984Z,94166.24
2023-02-03T00:49:59.790Z,94155.80
2023-02-03T00:55:09.403Z,94173.38
2023-02-03T01:00:17.455Z,94167.29
2023-02-03T01:05:24.887Z,94167.55
2023-02-03T01:10:32.745Z,94165.45
2023-02-03T01:15:39.436Z,94158.98
2023-02-03T01:20:47.173Z,94154.75
2023-02-03T01:25:54.282Z,94141.53
2023-02-03T01:31:12.893Z,94133.70
2023-02-03T01:36:21.263Z,94128.47
2023-02-03T01:41:32.018Z,94131.05
2023-02-03T01:46:46.552Z,94130.41
2023-02-03T01:51:54.656Z,94117.92
2023-02-03T01:57:06.122Z,94119.83
2023-02-03T02:02:15.598Z,94108.34
2023-02-03T02:07:22.580Z,94107.41
2023-02-03T02:12:29.596Z,94101.72
2023-02-03T02:17:49.481Z,94092.67
2023-02-03T02:23:20.284Z,94080.09
2023-02-03T02:28:49.345Z,94089.48
2023-02-03T02:34:09.015Z,94100.17
2023-02-03T02:39:23.041Z,94097.92
2023-02-03T02:44:42.691Z,94102.83
2023-02-03T02:49:53.921Z,94102.25
2023-02-03T02:55:05.771Z,94088.88
2023-02-03T03:00:14.294Z,94102.12
2023-02-03T03:11:48.413Z,94100.05
2023-02-03T03:16:59.584Z,94089.58
2023-02-03T03:22:10.909Z,94090.19
2023-02-03T03:27:33.668Z,94092.70
2023-02-03T03:32:41.287Z,94092.05
2023-02-03T03:37:58.315Z,94080.89
2023-02-03T03:43:18.384Z,94090.28
2023-02-03T03:48:35.530Z,94090.44
2023-02-03T03:53:45.023Z,94085.56
2023-02-03T03:58:55.207Z,94092.59
2023-02-03T04:04:06.904Z,94089.78
2023-02-03T04:09:14.212Z,94080.55
2023-02-03T04:14:21.418Z,94083.56
2023-02-03T04:19:28.836Z,94082.16
2023-02-03T04:24:35.820Z,94087.02
2023-02-03T04:29:42.542Z,94096.63
2023-02-03T04:34:49.829Z,94071.20
2023-02-03T04:39:57.491Z,94084.00
2023-02-03T04:45:05.285Z,94076.27
2023-02-03T04:50:12.561Z,94086.33
2023-02-03T04:55:19.498Z,94080.39
2023-02-03T05:00:27.129Z,94079.30
2023-02-03T05:05:34.045Z,94088.50
2023-02-03T05:10:40.747Z,94083.64
2023-02-03T05:15:49.849Z,94070.29
2023-02-03T05:20:57.105Z,94061.92
2023-02-03T05:26:03.770Z,94058.27
2023-02-03T05:31:10.576Z,94069.16
2023-02-03T05:36:17.281Z,94070.08
2023-02-03T05:41:41.744Z,94073.09
2023-02-03T05:46:49.302Z,94068.64
2023-02-03T05:51:57.640Z,94069.55
2023-02-03T05:57:04.598Z,94067.09
2023-02-03T06:02:11.342Z,94081.34
2023-02-03T06:07:18.072Z,94075.02
2023-02-03T06:12:27.493Z,94053.41
2023-02-03T06:17:34.362Z,94053.74
2023-02-03T06:22:41.241Z,94062.84
2023-02-03T06:27:48.006Z,94060.98
2023-02-03T06:32:54.765Z,94044.25
2023-02-03T06:38:01.519Z,94035.67
2023-02-03T06:43:10.772Z,94036.06
2023-02-03T06:48:17.770Z,94045.11
2023-02-03T06:53:24.899Z,94041.30
2023-02-03T06:58:32.673Z,94028.26
2023-02-03T07:03:39.293Z,94034.23
2023-02-03T07:08:46.069Z,94043.45
2023-02-03T07:13:53.769Z,94039.48
2023-02-03T07:19:00.468Z,94037.22
2023-02-03T07:24:07.561Z,94022.33
2023-02-03T07:29:14.276Z,94017.50
2023-02-03T07:34:20.981Z,94014.56
2023-02-03T07:39:27.752Z,94023.98
2023-02-03T07:44:34.565Z,93982.38
2023-02-03T07:49:41.329Z,93984.27
2023-02-03T07:54:48.069Z,93970.55
2023-02-03T07:59:55.329Z,93962.30
2023-02-03T08:05:02.461Z,93963.37
2023-02-03T08:10:11.053Z,93986.72
2023-02-03T08:15:18.247Z,93990.69
2023-02-03T08:20:25.840Z,94000.27
2023-02-03T08:25:33.182Z,93997.03
2023-02-03T08:30:40.732Z,93980.77
2023-02-03T08:35:51.965Z,93983.58
2023-02-03T08:40:59.368Z,93982.08
2023-02-03T08:46:08.075Z,93996.73
2023-02-03T08:51:18.372Z,93993.53
2023-02-03T08:56:26.860Z,93982.78
2023-02-03T09:01:33.690Z,93989.30
2023-02-03T09:06:41.207Z,93963.08
2023-02-03T09:11:48.014Z,93966.31
2023-02-03T09:16:54.976Z,93965.29
2023-02-03T09:22:01.973Z,93972.64
2023-02-03T09:27:09.091Z,93962.30
2023-02-03T09:32:16.114Z,93970.61
2023-02-03T09:37:23.024Z,93974.42
2023-02-03T09:42:50.547Z,93959.63
2023-02-03T09:48:03.912Z,93947.18
2023-02-03T09:53:18.389Z,93956.27
2023-02-03T09:58:26.017Z,93925.61
2023-02-03T10:03:39.759Z,93953.95
2023-02-03T10:09:06.493Z,93930.72
2023-02-03T10:15:05.517Z,93934.64
2023-02-03T10:20:18.886Z,93931.05
2023-02-03T10:25:41.726Z,93906.94
2023-02-03T10:31:02.193Z,93908.92
2023-02-03T10:36:25.053Z,93882.88
2023-02-03T10:41:33.984Z,93872.73
2023-02-03T10:46:43.676Z,93852.85
2023-02-03T10:51:56.751Z,93846.28
2023-02-03T10:57:10.433Z,93833.83
2023-02-03T11:02:30.858Z,93827.18
2023-02-03T11:07:37.631Z,93824.55
2023-02-03T11:12:44.566Z,93833.38
2023-02-03T11:17:51.248Z,93831.78
2023-02-03T11:22:58.531Z,93804.75
2023-02-03T11:28:11.413Z,93803.09
2023-02-03T11:33:22.671Z,93793.05
2023-02-03T11:38:40.490Z,93775.84
2023-02-03T11:43:48.042Z,93790.48
2023-02-03T11:49:04.902Z,93784.95
2023-02-03T11:54:53.598Z,93756.88
2023-02-03T12:00:25.828Z,93732.66
2023-02-03T12:05:51.696Z,93729.58
2023-02-03T12:11:14.853Z,93727.23
2023-02-03T12:16:44.224Z,93708.57
2023-02-03T12:22:04.456Z,93695.34
2023-02-03T12:27:42.696Z,93667.03
2023-02-03T12:33:02.486Z,93675.00
2023-02-03T12:38:37.335Z,93660.88
2023-02-03T12:43:47.500Z,93644.89
2023-02-03T12:49:01.031Z,93646.92
2023-02-03T12:54:09.823Z,93629.09
2023-02-03T12:59:25.137Z,93624.34
2023-02-03T13:04:57.073Z,93596.78
2023-02-03T13:10:23.018Z,93577.78
2023-02-03T13:15:45.242Z,93572.59
2023-02-03T13:20:52.127Z,93530.31
2023-02-03T13:26:17.842Z,93531.72
2023-02-03T13:31:29.153Z,93493.33
2023-02-03T13:37:07.867Z,93474.16
2023-02-03T13:42:33.440Z,93472.02
2023-02-03T13:47:40.568Z,93459.66
2023-02-03T13:53:02.566Z,93440.79
2023-02-03T13:58:26.156Z,93458.55
2023-02-03T14:03:39.992Z,93422.28
2023-02-03T14:08:51.747Z,93420.32
2023-02-03T14:14:14.943Z,93392.32
2023-02-03T14:19:35.038Z,93374.77
2023-02-03T14:24:50.577Z,93393.50
2023-02-03T14:30:17.829Z,93395.61
2023-02-03T14:35:32.205Z,93342.33
2023-02-03T14:40:55.203Z,93333.16
2023-02-03T14:46:39.506Z,93312.58
2023-02-03T14:52:08.659Z,93307.44
2023-02-03T14:57:34.813Z,93308.37
2023-02-03T15:02:49.131Z,93313.50
2023-02-03T15:07:56.523Z,93308.03
2023-02-03T15:13:03.545Z,93319.05
2023-02-03T15:18:30.076Z,93284.39
2023-02-03T15:23:43.664Z,93326.45
2023-02-03T15:29:03.075Z,93309.56
2023-02-03T15:34:31.869Z,93314.89
2023-02-03T15:40:02.912Z,93336.99
2023-02-03T15:45:26.854Z,93331.06
2023-02-03T15:50:41.262Z,93345.98
2023-02-03T15:55:51.419Z,93330.39
2023-02-03T16:01:06.322Z,93356.20
2023-02-03T16:06:36.012Z,93371.48
2023-02-03T16:11:42.760Z,93377.49
2023-02-03T16:17:04.893Z,93415.95
2023-02-03T16:22:03.113Z,93434.22
2023-02-03T16:27:33.843Z,93482.98
2023-02-03T16:32:58.357Z,93510.97
2023-02-03T16:38:37.222Z,93527.20
2023-02-03T16:44:01.578Z,93522.31
2023-02-03T16:49:25.379Z,93517.00
2023-02-03T16:54:32.299Z,93534.86
2023-02-03T16:59:39.258Z,93547.27
2023-02-03T17:04:46.162Z,93401.94
2023-02-03T17:09:53.579Z,93549.25
2023-02-03T17:15:00.820Z,93555.55
2023-02-03T17:20:08.783Z,93553.27
2023-02-03T17:25:15.591Z,93543.05
2023-02-03T17:30:23.268Z,93533.94
2023-02-03T17:35:31.149Z,93473.47
2023-02-03T17:56:57.865Z,93492.67
2023-02-03T18:02:05.126Z,93468.22
2023-02-03T18:07:11.779Z,93464.50
2023-02-03T18:12:18.509Z,93461.61
2023-02-03T18:17:25.463Z,93457.68
2023-02-03T18:22:32.743Z,93466.05
2023-02-03T18:27:40.848Z,93469.37
2023-02-03T18:32:49.030Z,93461.33
2023-02-03T18:37:55.931Z,93476.55
2023-02-03T18:43:03.570Z,93471.08
2023-02-03T18:48:10.298Z,93484.41
2023-02-03T18:53:17.805Z,93471.87
2023-02-03T18:58:24.648Z,93481.32
2023-02-03T19:03:31.521Z,93467.27
2023-02-03T19:08:38.390Z,93462.97
2023-02-03T19:13:45.875Z,93451.13
2023-02-03T19:18:52.695Z,93462.87
2023-02-03T19:23:59.432Z,93457.52
2023-02-03T19:29:06.473Z,93445.45
2023-02-03T19:34:18.837Z,93441.05
2023-02-03T19:39:25.549Z,93429.17
2023-02-03T19:44:32.608Z,93453.52
2023-02-03T19:49:39.551Z,93422.85
2023-02-03T19:54:46.303Z,93413.58
2023-02-03T19:59:53.328Z,93431.97
2023-02-03T20:05:00.552Z,93412.59
2023-02-03T20:10:09.012Z,93407.13
2023-02-03T20:15:15.818Z,93399.39
2023-02-03T20:20:23.609Z,93416.25
2023-02-03T20:25:30.846Z,93405.70
2023-02-03T20:30:39.601Z,93412.31
2023-02-03T20:35:46.955Z,93392.23
2023-02-03T20:40:54.097Z,93397.70
2023-02-03T20:46:00.948Z,93407.53
2023-02-03T20:51:14.274Z,93401.73
2023-02-03T20:56:23.120Z,93395.67
2023-02-03T21:01:31.581Z,93406.09
2023-02-03T21:06:38.313Z,93418.97
2023-02-03T21:11:46.210Z,93389.45
2023-02-03T21:16:55.422Z,93406.38
2023-02-03T21:22:05.830Z,93408.14
2023-02-03T21:27:29.338Z,93398.08
2023-02-03T21:32:42.089Z,93408.70
2023-02-03T21:37:48.511Z,93421.44
2023-02-03T21:42:56.092Z,93420.44
2023-02-03T21:48:04.831Z,93427.69
2023-02-03T21:53:16.324Z,93411.67
2023-02-03T21:58:34.295Z,93416.98
2023-02-03T22:03:43.703Z,93421.88
2023-02-03T22:08:52.947Z,93424.69
2023-02-03T22:14:01.110Z,93425.73
2023-02-03T22:19:08.541Z,93437.87
2023-02-03T22:24:15.302Z,93441.89
2023-02-03T22:29:23.449Z,93452.10
2023-02-03T22:34:30.263Z,93454.48
2023-02-03T22:39:37.322Z,93448.50
2023-02-03T22:44:44.138Z,93458.76
2023-02-03T22:49:51.566Z,93459.34
2023-02-03T22:54:58.388Z,93458.19
2023-02-03T23:00:10.192Z,93449.45
2023-02-03T23:11:05.635Z,93445.37
2023-02-03T23:16:12.885Z,93441.61
2023-02-03T23:21:20.039Z,93428.73
2023-02-03T23:26:27.162Z,93425.38
2023-02-03T23:31:34.235Z,93450.61
2023-02-03T23:36:41.130Z,93439.82
2023-02-03T23:41:47.818Z,93436.53
2023-02-03T23:46:54.562Z,93438.41
2023-02-03T23:52:02.155Z,93459.58
2023-02-03T23:57:09.084Z,93457.98
